Time;durP1;ratioP1;P1;durP2;ratioP2;P2;SDS_P1;SDS_P2;PMS_P1;PMS_P2;Temp;Humidity;BMP_temperature;BMP_pressure;BME280_temperature;BME280_humidity;BME280_pressure;Samples;Min_cycle;Max_cycle;Signal;HPM_P1;HPM_P2
2022/09/13 00:00:58;;;;;;;10.77;8.00;;;20.10;87.40;;;;;;5053233;28;20112;-81
2022/09/13 00:03:24;;;;;;;10.93;7.60;;;20.20;87.60;;;;;;5053099;28;20504;-81
2022/09/13 00:05:50;;;;;;;13.52;8.00;;;20.20;87.60;;;;;;5072632;28;20032;-81
2022/09/13 00:08:17;;;;;;;13.05;8.20;;;20.20;87.70;;;;;;5056472;28;20021;-81
2022/09/13 00:10:43;;;;;;;15.00;7.82;;;20.20;88.40;;;;;;5056317;28;20024;-81
2022/09/13 00:13:11;;;;;;;14.35;8.25;;;20.20;87.70;;;;;;5072906;28;20016;-81
2022/09/13 00:15:42;;;;;;;12.65;9.27;;;20.10;87.70;;;;;;5072259;28;20069;-81
2022/09/13 00:18:08;;;;;;;11.70;8.02;;;20.20;87.90;;;;;;5074124;28;20025;-81
2022/09/13 00:20:34;;;;;;;13.30;9.27;;;20.10;87.80;;;;;;5056280;28;20040;-81
2022/09/13 00:22:59;;;;;;;11.65;8.88;;;20.10;87.80;;;;;;5039483;28;20028;-81
2022/09/13 00:25:25;;;;;;;11.25;8.65;;;20.10;87.80;;;;;;5056094;28;20040;-81
2022/09/13 00:27:50;;;;;;;11.50;8.65;;;20.10;87.90;;;;;;5056017;28;20078;-81
2022/09/13 00:30:16;;;;;;;12.05;8.43;;;20.10;87.90;;;;;;5056001;28;20095;-81
2022/09/13 00:32:42;;;;;;;9.88;7.82;;;20.10;88.00;;;;;;5073767;28;20528;-81
2022/09/13 00:35:08;;;;;;;12.73;8.70;;;20.10;88.10;;;;;;5055916;28;20508;-81
2022/09/13 00:37:33;;;;;;;11.82;8.70;;;20.10;88.30;;;;;;5055990;28;20469;-81
2022/09/13 00:40:00;;;;;;;13.55;9.30;;;20.10;88.50;;;;;;5039372;28;20029;-81
2022/09/13 00:42:28;;;;;;;12.02;8.73;;;20.10;88.60;;;;;;5055956;28;20037;-81
2022/09/13 00:44:56;;;;;;;11.65;8.13;;;20.10;88.90;;;;;;5072829;28;20384;-82
2022/09/13 00:47:36;;;;;;;11.82;8.32;;;20.10;89.10;;;;;;5072345;28;20048;-81
2022/09/13 00:50:13;;;;;;;11.23;8.68;;;20.10;89.30;;;;;;5072222;28;20055;-81
2022/09/13 00:52:40;;;;;;;9.60;7.22;;;20.10;89.30;;;;;;5072645;28;20090;-81
2022/09/13 00:55:14;;;;;;;10.32;6.95;;;20.10;89.30;;;;;;5072272;28;20484;-79
2022/09/13 00:57:41;;;;;;;9.38;6.97;;;20.10;89.80;;;;;;5060705;28;20021;-78
2022/09/13 01:00:16;;;;;;;9.90;6.60;;;20.10;90.00;;;;;;5073829;28;20169;-78
2022/09/13 01:02:54;;;;;;;8.40;6.00;;;20.10;90.10;;;;;;5072718;28;20384;-78
2022/09/13 01:05:23;;;;;;;9.45;5.40;;;20.10;90.10;;;;;;5073063;28;20028;-78
2022/09/13 01:07:50;;;;;;;10.27;6.45;;;20.00;90.10;;;;;;5072442;28;20073;-78
2022/09/13 01:10:16;;;;;;;10.68;6.50;;;20.00;90.20;;;;;;5073662;28;20042;-78
2022/09/13 01:12:47;;;;;;;9.18;5.60;;;20.10;90.40;;;;;;5055589;28;20120;-78
2022/09/13 01:15:13;;;;;;;10.95;5.88;;;20.00;90.40;;;;;;5073564;28;20024;-77
2022/09/13 01:17:39;;;;;;;10.90;6.15;;;20.00;90.50;;;;;;5073477;28;20029;-79
2022/09/13 01:20:07;;;;;;;10.82;6.75;;;20.00;90.60;;;;;;5072259;28;20028;-78
2022/09/13 01:22:51;;;;;;;8.75;6.45;;;20.00;90.70;;;;;;5055939;28;20039;-79
2022/09/13 01:25:36;;;;;;;9.40;6.78;;;20.00;90.70;;;;;;5073355;28;20024;-79
2022/09/13 01:28:11;;;;;;;10.02;7.25;;;20.00;90.80;;;;;;5075725;28;20025;-78
2022/09/13 01:30:55;;;;;;;11.82;6.88;;;20.00;90.80;;;;;;5077520;28;20029;-78
2022/09/13 01:33:21;;;;;;;8.25;5.72;;;19.90;91.00;;;;;;5075993;28;20472;-78
2022/09/13 01:35:55;;;;;;;11.50;7.45;;;19.90;91.00;;;;;;5077674;28;20027;-79
2022/09/13 01:38:21;;;;;;;11.18;7.70;;;19.90;91.10;;;;;;5077265;28;20079;-79
2022/09/13 01:41:16;;;;;;;10.07;7.22;;;19.90;91.20;;;;;;5075977;28;20059;-80
2022/09/13 01:44:17;;;;;;;12.45;7.45;;;19.90;91.40;;;;;;5077778;28;20017;-80
2022/09/13 01:47:04;;;;;;;11.20;8.10;;;19.90;91.40;;;;;;5075752;28;20037;-79
2022/09/13 01:49:49;;;;;;;11.32;7.47;;;19.90;91.40;;;;;;5078547;28;20016;-79
2022/09/13 01:52:44;;;;;;;9.32;7.40;;;19.90;91.40;;;;;;5078630;28;20031;-79
2022/09/13 01:55:29;;;;;;;9.57;7.05;;;19.90;91.40;;;;;;5080226;28;20028;-79
2022/09/13 01:58:14;;;;;;;9.43;7.03;;;19.90;91.40;;;;;;5079040;28;20465;-80
2022/09/13 02:01:06;;;;;;;9.32;7.35;;;19.90;91.50;;;;;;5080915;28;20047;-79
2022/09/13 02:04:01;;;;;;;10.07;6.97;;;19.90;91.60;;;;;;5081055;28;20013;-80
2022/09/13 02:06:35;;;;;;;14.55;8.52;;;19.90;91.70;;;;;;5079279;28;20028;-79
2022/09/13 02:09:15;;;;;;;12.25;7.38;;;19.80;91.60;;;;;;5079238;28;20096;-79
2022/09/13 02:11:46;;;;;;;9.65;7.82;;;19.80;91.70;;;;;;5076855;28;20100;-80
2022/09/13 02:14:20;;;;;;;11.10;8.13;;;19.80;91.80;;;;;;5077498;28;20028;-79
2022/09/13 02:16:58;;;;;;;12.55;8.75;;;19.80;91.90;;;;;;5078079;28;20016;-79
2022/09/13 02:19:32;;;;;;;12.57;9.07;;;19.70;91.90;;;;;;5078256;28;20071;-79
2022/09/13 02:21:59;;;;;;;16.20;9.00;;;19.70;91.90;;;;;;5077231;28;20029;-79
2022/09/13 02:24:52;;;;;;;13.65;9.25;;;19.80;92.00;;;;;;5075966;28;20031;-79
2022/09/13 02:27:25;;;;;;;11.85;8.93;;;19.80;92.00;;;;;;5075281;28;20012;-79
2022/09/13 02:29:56;;;;;;;12.80;8.13;;;19.80;92.00;;;;;;5076490;28;20052;-79
2022/09/13 02:32:29;;;;;;;11.60;9.00;;;19.80;91.90;;;;;;5076755;28;20036;-79
2022/09/13 02:35:01;;;;;;;12.45;8.82;;;19.80;91.90;;;;;;5076693;28;20031;-79
2022/09/13 02:37:30;;;;;;;13.50;8.77;;;19.80;91.90;;;;;;5075967;28;20085;-79
2022/09/13 02:40:01;;;;;;;13.07;9.32;;;19.70;91.80;;;;;;5075823;28;20033;-79
2022/09/13 02:42:36;;;;;;;11.85;9.10;;;19.70;91.70;;;;;;5085293;28;20024;-79
2022/09/13 02:45:05;;;;;;;17.10;10.55;;;19.70;91.70;;;;;;5085619;28;20012;-79
2022/09/13 02:47:30;;;;;;;12.93;9.10;;;19.70;91.50;;;;;;5080729;28;20021;-80
2022/09/13 02:50:17;;;;;;;12.32;9.27;;;19.70;91.50;;;;;;5075499;28;20028;-80
2022/09/13 02:53:10;;;;;;;12.77;9.10;;;19.70;91.60;;;;;;5076198;28;20158;-80
2022/09/13 02:55:43;;;;;;;11.23;8.18;;;19.70;91.20;;;;;;5076828;28;20024;-80
2022/09/13 02:58:15;;;;;;;11.38;7.28;;;19.70;91.10;;;;;;5076249;28;20436;-79
2022/09/13 03:00:40;;;;;;;11.13;8.65;;;19.70;91.10;;;;;;5077222;28;20039;-79
2022/09/13 03:03:10;;;;;;;10.98;8.98;;;19.70;91.10;;;;;;5060414;28;20032;-79
2022/09/13 03:05:35;;;;;;;11.20;9.23;;;19.70;91.20;;;;;;5076173;28;20029;-79
2022/09/13 03:08:02;;;;;;;11.80;8.80;;;19.70;91.20;;;;;;5075672;28;20028;-80
2022/09/13 03:10:40;;;;;;;12.40;8.90;;;19.60;91.10;;;;;;5042148;28;20388;-79
2022/09/13 03:13:44;;;;;;;16.50;9.23;;;19.60;91.10;;;;;;5075450;28;20060;-80
2022/09/13 03:16:27;;;;;;;13.68;8.77;;;19.60;91.10;;;;;;5075426;28;20392;-80
2022/09/13 03:19:26;;;;;;;13.05;9.73;;;19.60;91.10;;;;;;5077442;28;20032;-80
2022/09/13 03:22:15;;;;;;;11.95;9.43;;;19.60;91.20;;;;;;5075671;28;20020;-79
2022/09/13 03:25:17;;;;;;;13.65;9.85;;;19.60;91.20;;;;;;5075641;28;20480;-79
2022/09/13 03:28:08;;;;;;;14.52;9.27;;;19.60;91.30;;;;;;5074339;28;20048;-79
2022/09/13 03:30:37;;;;;;;11.90;9.32;;;19.60;91.30;;;;;;5074193;28;20024;-79
2022/09/13 03:33:19;;;;;;;13.43;9.63;;;19.60;91.30;;;;;;5072797;28;20078;-79
2022/09/13 03:36:03;;;;;;;12.88;9.20;;;19.60;91.40;;;;;;5053335;28;20142;-80
2022/09/13 03:38:53;;;;;;;12.88;10.25;;;19.60;91.40;;;;;;5053173;28;20029;-79
2022/09/13 03:41:25;;;;;;;10.98;9.18;;;19.50;91.30;;;;;;5054172;28;20466;-79
2022/09/13 03:43:55;;;;;;;12.48;9.35;;;19.50;91.30;;;;;;5053878;28;20017;-79
2022/09/13 03:46:41;;;;;;;13.45;10.45;;;19.50;91.30;;;;;;5054767;28;20028;-79
2022/09/13 03:49:17;;;;;;;13.65;10.13;;;19.50;91.30;;;;;;5066964;28;20412;-79
2022/09/13 03:51:46;;;;;;;12.02;10.30;;;19.50;91.20;;;;;;5056456;28;20020;-80
2022/09/13 03:54:23;;;;;;;15.30;11.40;;;19.50;91.20;;;;;;5055747;28;20104;-80
2022/09/13 03:57:07;;;;;;;17.02;11.50;;;19.50;91.30;;;;;;5053747;28;20090;-79
2022/09/13 03:59:35;;;;;;;14.40;10.77;;;19.50;91.40;;;;;;5054570;28;20138;-79
2022/09/13 04:02:02;;;;;;;12.90;9.98;;;19.50;91.40;;;;;;5043496;28;20025;-79
2022/09/13 04:04:27;;;;;;;15.32;11.23;;;19.50;91.30;;;;;;5046840;28;20025;-79
2022/09/13 04:06:55;;;;;;;13.85;10.98;;;19.50;91.30;;;;;;5055134;28;20055;-81
2022/09/13 04:09:24;;;;;;;15.55;11.35;;;19.50;91.30;;;;;;5021388;28;20021;-81
2022/09/13 04:11:52;;;;;;;14.40;10.73;;;19.50;91.30;;;;;;5037974;28;20048;-82
2022/09/13 04:14:17;;;;;;;16.67;12.52;;;19.40;91.40;;;;;;5038991;28;20029;-82
2022/09/13 04:16:44;;;;;;;13.68;11.15;;;19.40;91.50;;;;;;5038253;28;20441;-82
2022/09/13 04:19:13;;;;;;;14.05;11.18;;;19.50;91.60;;;;;;5055394;28;20120;-81
2022/09/13 04:21:38;;;;;;;14.88;11.18;;;19.50;91.70;;;;;;5039778;28;20407;-82
2022/09/13 04:24:07;;;;;;;15.15;11.27;;;19.40;91.60;;;;;;5055571;28;20029;-82
2022/09/13 04:26:34;;;;;;;14.88;10.98;;;19.50;91.70;;;;;;5022853;28;20059;-82
2022/09/13 04:29:04;;;;;;;13.65;11.70;;;19.40;91.70;;;;;;5038478;28;20025;-82
2022/09/13 04:31:33;;;;;;;14.75;11.55;;;19.40;91.80;;;;;;5054898;28;20111;-83
2022/09/13 04:33:59;;;;;;;17.08;11.90;;;19.40;91.80;;;;;;5043922;28;20142;-82
2022/09/13 04:36:28;;;;;;;14.43;11.15;;;19.40;91.80;;;;;;5073859;28;20028;-82
2022/09/13 04:38:54;;;;;;;20.17;12.32;;;19.40;91.80;;;;;;5072960;28;20028;-82
2022/09/13 04:41:20;;;;;;;15.93;11.73;;;19.40;91.80;;;;;;5072636;28;20503;-82
2022/09/13 04:43:51;;;;;;;13.82;11.35;;;19.40;91.90;;;;;;5040153;28;20166;-82
2022/09/13 04:46:17;;;;;;;14.70;12.07;;;19.40;92.20;;;;;;5056518;28;20052;-83
2022/09/13 04:48:48;;;;;;;16.80;12.60;;;19.40;91.90;;;;;;5073373;28;20464;-82
2022/09/13 04:51:14;;;;;;;15.45;12.02;;;19.40;91.80;;;;;;5072662;28;20421;-82
2022/09/13 04:53:40;;;;;;;15.00;11.77;;;19.30;91.80;;;;;;5072468;28;20074;-82
2022/09/13 04:56:08;;;;;;;15.57;12.18;;;19.30;91.80;;;;;;5055991;28;20430;-83
2022/09/13 04:58:34;;;;;;;16.33;11.90;;;19.30;91.80;;;;;;5072567;28;20044;-83
2022/09/13 05:01:01;;;;;;;17.83;12.23;;;19.30;91.80;;;;;;5054092;28;20025;-83
2022/09/13 05:03:30;;;;;;;15.63;11.45;;;19.30;91.80;;;;;;5051682;28;20523;-82
2022/09/13 05:06:10;;;;;;;17.13;11.05;;;19.20;91.70;;;;;;5053754;28;20080;-82
2022/09/13 05:08:57;;;;;;;17.85;11.55;;;19.30;92.10;;;;;;5053101;28;20021;-82
2022/09/13 05:11:27;;;;;;;19.27;11.80;;;19.30;91.80;;;;;;5053019;28;20028;-82
2022/09/13 05:13:57;;;;;;;17.77;11.43;;;19.30;91.80;;;;;;5053206;28;20032;-81
2022/09/13 05:16:25;;;;;;;15.65;10.65;;;19.30;91.80;;;;;;5061496;28;20218;-82
2022/09/13 05:18:51;;;;;;;14.90;11.27;;;19.30;91.80;;;;;;5060866;28;20540;-81
2022/09/13 05:21:17;;;;;;;14.13;11.50;;;19.30;91.80;;;;;;5051709;28;20028;-81
2022/09/13 05:23:44;;;;;;;14.63;11.63;;;19.30;91.80;;;;;;5034216;28;20037;-81
2022/09/13 05:26:09;;;;;;;13.32;10.75;;;19.40;91.80;;;;;;5061895;28;20162;-80
2022/09/13 05:28:36;;;;;;;18.33;11.80;;;19.30;91.70;;;;;;5061576;28;20515;-81
2022/09/13 05:31:08;;;;;;;15.80;12.40;;;19.30;91.70;;;;;;5050466;28;20025;-81
2022/09/13 05:33:36;;;;;;;15.97;12.37;;;19.30;91.80;;;;;;5052398;28;20029;-81
2022/09/13 05:36:04;;;;;;;15.05;11.73;;;19.30;91.70;;;;;;5052893;28;20017;-80
2022/09/13 05:38:30;;;;;;;18.58;12.23;;;19.30;91.60;;;;;;5058470;28;20385;-80
2022/09/13 05:41:04;;;;;;;15.13;11.45;;;19.30;91.60;;;;;;5054734;28;20059;-80
2022/09/13 05:43:33;;;;;;;16.10;11.80;;;19.30;91.60;;;;;;5050117;28;20029;-81
2022/09/13 05:46:07;;;;;;;14.77;11.57;;;19.40;91.60;;;;;;5065474;28;20013;-81
2022/09/13 05:48:34;;;;;;;14.45;11.10;;;19.30;92.00;;;;;;5051492;28;20025;-81
2022/09/13 05:51:05;;;;;;;15.70;11.38;;;19.30;91.70;;;;;;5037671;28;20021;-81
2022/09/13 05:53:31;;;;;;;13.73;10.23;;;19.30;91.80;;;;;;5070284;28;20081;-81
2022/09/13 05:55:57;;;;;;;14.43;11.43;;;19.30;91.90;;;;;;5054738;28;20063;-81
2022/09/13 05:58:22;;;;;;;14.90;11.52;;;19.30;92.00;;;;;;5071068;28;20064;-81
2022/09/13 06:00:57;;;;;;;13.00;10.65;;;19.30;92.00;;;;;;5071491;28;20123;-81
2022/09/13 06:03:23;;;;;;;15.70;11.35;;;19.30;92.10;;;;;;5051217;28;20067;-81
2022/09/13 06:05:53;;;;;;;15.48;11.13;;;19.40;92.10;;;;;;5034816;28;20071;-80
2022/09/13 06:08:18;;;;;;;15.93;10.82;;;19.40;92.10;;;;;;5049635;28;20110;-80
2022/09/13 06:10:59;;;;;;;16.08;10.13;;;19.40;92.10;;;;;;5018298;28;20121;-81
2022/09/13 06:13:26;;;;;;;15.43;11.82;;;19.50;92.20;;;;;;5051344;28;20029;-82
2022/09/13 06:15:53;;;;;;;15.60;11.98;;;19.50;92.20;;;;;;5054601;28;20500;-83
2022/09/13 06:18:19;;;;;;;14.20;11.43;;;19.50;92.20;;;;;;5054864;28;20024;-82
2022/09/13 06:20:45;;;;;;;16.42;11.15;;;19.60;92.20;;;;;;5054743;28;20083;-83
2022/09/13 06:23:11;;;;;;;13.93;11.43;;;19.60;92.20;;;;;;5056348;28;20025;-83
2022/09/13 06:25:37;;;;;;;14.50;11.10;;;19.70;92.20;;;;;;5055317;28;20024;-83
2022/09/13 06:28:04;;;;;;;19.30;12.57;;;19.70;92.20;;;;;;5039005;28;20033;-83
2022/09/13 06:30:29;;;;;;;17.48;12.20;;;19.70;92.30;;;;;;5038411;28;20033;-82
2022/09/13 06:32:56;;;;;;;16.48;11.80;;;19.80;92.30;;;;;;5055421;28;20488;-83
2022/09/13 06:35:22;;;;;;;19.00;11.48;;;19.80;92.30;;;;;;5038394;28;20052;-82
2022/09/13 06:37:48;;;;;;;15.45;11.88;;;19.80;92.20;;;;;;5038316;28;20111;-82
2022/09/13 06:40:15;;;;;;;17.00;12.50;;;19.80;92.20;;;;;;5038222;28;20033;-82
2022/09/13 06:42:41;;;;;;;15.50;12.30;;;19.90;92.20;;;;;;5054985;28;20033;-83
2022/09/13 06:45:07;;;;;;;15.95;12.57;;;19.90;92.10;;;;;;5054791;28;20044;-83
2022/09/13 06:47:33;;;;;;;18.27;12.27;;;19.90;92.10;;;;;;5056723;28;20049;-82
2022/09/13 06:49:59;;;;;;;16.40;11.50;;;19.90;92.10;;;;;;5055274;28;20033;-83
2022/09/13 06:52:25;;;;;;;17.23;12.40;;;20.00;92.10;;;;;;5038129;28;20087;-80
2022/09/13 06:54:51;;;;;;;14.30;11.98;;;20.00;92.10;;;;;;5054610;28;20465;-80
2022/09/13 06:57:16;;;;;;;16.35;13.10;;;20.00;92.10;;;;;;5037780;28;20033;-80
2022/09/13 06:59:42;;;;;;;14.25;10.90;;;20.10;92.10;;;;;;5020989;28;20489;-80
2022/09/13 07:02:09;;;;;;;16.05;11.77;;;20.10;92.00;;;;;;5021198;28;20048;-80
2022/09/13 07:04:35;;;;;;;18.90;12.70;;;20.10;92.00;;;;;;5055359;28;20021;-80
2022/09/13 07:07:00;;;;;;;18.02;11.98;;;20.20;92.00;;;;;;5037456;28;20032;-80
2022/09/13 07:09:26;;;;;;;16.73;12.70;;;20.20;92.00;;;;;;5037606;28;20029;-80
2022/09/13 07:11:54;;;;;;;17.58;13.23;;;20.30;92.00;;;;;;5054121;28;20083;-80
2022/09/13 07:14:23;;;;;;;17.55;13.23;;;20.30;91.90;;;;;;5053867;28;20461;-80
2022/09/13 07:16:50;;;;;;;19.70;13.80;;;20.40;92.10;;;;;;5054340;28;20550;-82
2022/09/13 07:19:21;;;;;;;17.40;13.75;;;20.40;91.70;;;;;;5053720;28;20052;-83
2022/09/13 07:21:48;;;;;;;20.45;12.60;;;20.50;91.70;;;;;;5053843;28;20056;-82
2022/09/13 07:24:15;;;;;;;18.73;14.05;;;20.60;91.60;;;;;;5053931;28;20013;-82
2022/09/13 07:26:41;;;;;;;16.80;13.70;;;20.60;91.60;;;;;;5054555;28;20093;-83
2022/09/13 07:29:09;;;;;;;17.40;13.18;;;20.60;91.40;;;;;;5037161;28;20028;-83
2022/09/13 07:31:41;;;;;;;20.35;14.20;;;20.70;91.40;;;;;;5053551;28;20381;-83
2022/09/13 07:34:12;;;;;;;19.30;12.88;;;20.70;91.30;;;;;;5053773;28;20491;-83
2022/09/13 07:36:38;;;;;;;17.55;12.98;;;20.70;91.30;;;;;;5055277;28;20025;-82
2022/09/13 07:39:04;;;;;;;18.73;12.95;;;20.70;91.20;;;;;;5056151;28;20488;-83
2022/09/13 07:41:31;;;;;;;18.08;13.80;;;20.80;91.20;;;;;;5053569;28;20025;-83
2022/09/13 07:43:59;;;;;;;16.33;13.40;;;20.80;91.20;;;;;;5053620;28;20465;-83
2022/09/13 07:46:26;;;;;;;19.45;14.70;;;20.80;91.20;;;;;;5054037;28;20021;-83
2022/09/13 07:48:54;;;;;;;18.75;13.07;;;20.90;91.10;;;;;;5038151;28;20021;-83
2022/09/13 07:51:26;;;;;;;19.10;14.68;;;20.90;91.10;;;;;;5054777;28;20017;-83
2022/09/13 07:53:55;;;;;;;20.10;14.05;;;20.90;91.00;;;;;;5054585;28;20029;-82
2022/09/13 07:56:24;;;;;;;15.90;11.63;;;21.00;91.00;;;;;;5053367;28;20619;-83
2022/09/13 07:58:50;;;;;;;16.27;11.45;;;21.00;91.00;;;;;;5054175;28;20056;-83
2022/09/13 08:01:26;;;;;;;15.90;11.15;;;21.10;91.00;;;;;;5053165;28;20110;-83
2022/09/13 08:03:57;;;;;;;17.08;10.82;;;21.20;91.00;;;;;;5058400;28;20021;-82
2022/09/13 08:06:24;;;;;;;12.32;8.18;;;21.20;91.00;;;;;;5050392;28;20074;-83
2022/09/13 08:08:51;;;;;;;12.63;8.55;;;21.30;91.00;;;;;;5061076;28;20060;-82
2022/09/13 08:11:19;;;;;;;13.13;8.40;;;21.40;90.90;;;;;;5060279;28;20116;-83
2022/09/13 08:13:49;;;;;;;10.48;7.50;;;21.50;91.30;;;;;;5072321;28;20071;-83
2022/09/13 08:16:17;;;;;;;10.07;6.57;;;21.60;91.00;;;;;;5038794;28;20097;-82
2022/09/13 08:18:47;;;;;;;9.70;5.47;;;21.70;91.00;;;;;;5055480;28;20032;-82
2022/09/13 08:21:14;;;;;;;7.57;4.65;;;21.70;90.90;;;;;;5054668;28;20032;-83
2022/09/13 08:23:40;;;;;;;7.15;4.93;;;21.80;91.20;;;;;;5054987;28;20107;-83
2022/09/13 08:26:07;;;;;;;11.43;5.32;;;21.90;90.90;;;;;;5053320;28;20020;-83
2022/09/13 08:28:42;;;;;;;11.18;6.00;;;22.00;91.00;;;;;;5053208;28;20098;-83
2022/09/13 08:31:16;;;;;;;9.95;5.70;;;22.10;90.70;;;;;;5054291;28;20032;-83
2022/09/13 08:33:44;;;;;;;7.07;4.60;;;22.20;90.60;;;;;;5053315;28;20028;-82
2022/09/13 08:36:10;;;;;;;7.15;3.55;;;22.20;90.50;;;;;;5036241;28;20477;-82
2022/09/13 08:38:36;;;;;;;7.90;4.38;;;22.30;90.40;;;;;;5052491;28;20401;-82
2022/09/13 08:41:15;;;;;;;9.40;4.90;;;22.30;90.30;;;;;;5036149;28;20469;-82
2022/09/13 08:44:00;;;;;;;8.25;5.30;;;22.30;90.30;;;;;;5052812;28;20027;-83
2022/09/13 08:46:32;;;;;;;8.90;4.70;;;22.40;90.20;;;;;;5054979;28;20025;-83
2022/09/13 08:49:03;;;;;;;9.00;5.20;;;22.40;90.10;;;;;;5054544;28;20021;-83
2022/09/13 08:51:32;;;;;;;10.18;5.57;;;22.60;90.10;;;;;;5052919;28;20031;-84
2022/09/13 08:54:01;;;;;;;8.15;5.55;;;22.60;90.00;;;;;;5053917;28;20025;-83
2022/09/13 08:56:38;;;;;;;7.82;5.10;;;22.60;89.80;;;;;;5052353;28;20396;-83
2022/09/13 08:59:16;;;;;;;8.75;5.28;;;22.70;89.70;;;;;;5068971;28;20033;-81
2022/09/13 09:02:03;;;;;;;8.10;5.65;;;22.70;89.50;;;;;;5052134;28;20036;-81
2022/09/13 09:05:06;;;;;;;7.47;4.93;;;22.80;89.30;;;;;;5053266;28;20033;-80
2022/09/13 09:07:41;;;;;;;12.60;6.97;;;22.80;89.00;;;;;;5053224;28;20075;-81
2022/09/13 09:10:15;;;;;;;9.50;7.35;;;23.00;88.80;;;;;;5052102;28;20111;-79
2022/09/13 09:12:46;;;;;;;9.90;7.78;;;23.00;88.50;;;;;;5052096;28;20029;-80
2022/09/13 09:15:24;;;;;;;13.52;7.75;;;23.00;88.30;;;;;;5052003;28;20017;-81
2022/09/13 09:18:12;;;;;;;11.13;7.70;;;23.10;88.00;;;;;;5051864;28;20036;-80
2022/09/13 09:20:47;;;;;;;10.70;6.90;;;23.20;87.70;;;;;;5051135;28;20048;-80
2022/09/13 09:23:24;;;;;;;9.52;6.85;;;23.20;87.40;;;;;;5051961;28;20048;-80
2022/09/13 09:26:15;;;;;;;10.57;6.57;;;23.20;87.00;;;;;;5053239;28;20027;-80
2022/09/13 09:28:42;;;;;;;11.70;7.47;;;23.30;86.70;;;;;;5052157;28;20032;-81
2022/09/13 09:31:41;;;;;;;9.68;6.57;;;23.30;86.50;;;;;;5035292;28;20021;-81
2022/09/13 09:34:31;;;;;;;10.15;6.18;;;23.30;86.20;;;;;;5047119;28;20033;-81
2022/09/13 09:37:23;;;;;;;8.85;6.07;;;23.40;85.90;;;;;;5051717;28;20025;-80
2022/09/13 09:39:52;;;;;;;10.20;6.57;;;23.40;86.30;;;;;;5035189;28;20052;-79
2022/09/13 09:42:27;;;;;;;10.80;6.35;;;23.40;85.50;;;;;;5051604;28;20469;-80
2022/09/13 09:45:04;;;;;;;9.82;5.50;;;23.50;85.30;;;;;;5051717;28;20028;-80
2022/09/13 09:47:41;;;;;;;8.77;5.07;;;23.40;85.10;;;;;;5051465;28;20013;-80
2022/09/13 09:50:13;;;;;;;10.40;4.63;;;23.50;85.00;;;;;;5055521;28;20036;-80
2022/09/13 09:52:43;;;;;;;6.57;4.10;;;23.40;84.70;;;;;;5056056;28;20039;-79
2022/09/13 09:55:28;;;;;;;6.30;3.67;;;23.40;84.50;;;;;;5055465;28;20032;-79
2022/09/13 09:58:00;;;;;;;7.22;3.78;;;23.50;84.50;;;;;;5056748;28;20492;-79
2022/09/13 10:00:31;;;;;;;5.38;3.20;;;23.50;84.40;;;;;;5056358;28;20052;-80
2022/09/13 10:03:00;;;;;;;5.47;2.80;;;23.60;84.20;;;;;;5055505;28;20075;-80
2022/09/13 10:05:27;;;;;;;7.90;3.63;;;23.60;83.90;;;;;;5055342;28;20025;-80
2022/09/13 10:07:55;;;;;;;3.97;2.17;;;23.70;83.70;;;;;;5038656;28;20061;-80
2022/09/13 10:10:25;;;;;;;5.50;2.53;;;23.70;83.60;;;;;;5055168;28;20082;-80
2022/09/13 10:12:55;;;;;;;5.55;2.55;;;23.70;83.40;;;;;;5055059;28;20024;-81
2022/09/13 10:15:25;;;;;;;4.20;2.38;;;23.80;83.10;;;;;;5056397;28;20054;-81
2022/09/13 10:18:04;;;;;;;4.30;1.90;;;23.80;82.90;;;;;;5056355;28;20104;-81
2022/09/13 10:20:33;;;;;;;6.40;2.03;;;23.90;82.60;;;;;;5054794;28;20031;-81
2022/09/13 10:23:33;;;;;;;3.30;1.90;;;24.00;82.30;;;;;;5056278;28;20460;-80
2022/09/13 10:26:04;;;;;;;4.75;1.85;;;24.10;81.70;;;;;;5054613;28;20044;-81
2022/09/13 10:28:34;;;;;;;6.32;2.17;;;24.10;81.40;;;;;;5054926;28;20404;-81
2022/09/13 10:31:09;;;;;;;4.57;2.00;;;24.20;81.10;;;;;;5055945;28;20484;-81
2022/09/13 10:33:57;;;;;;;4.05;1.85;;;24.20;80.70;;;;;;5054686;28;20032;-77
2022/09/13 10:36:28;;;;;;;5.88;1.98;;;24.20;80.50;;;;;;5054704;28;20385;-79
2022/09/13 10:39:16;;;;;;;5.40;1.58;;;24.20;80.30;;;;;;5054848;28;20025;-81
2022/09/13 10:41:58;;;;;;;3.47;1.45;;;24.20;80.00;;;;;;5055971;28;20028;-80
2022/09/13 10:44:26;;;;;;;2.45;1.23;;;24.20;79.90;;;;;;5071187;28;20032;-82
2022/09/13 10:46:52;;;;;;;3.25;1.40;;;24.30;79.80;;;;;;5054897;28;20025;-81
2022/09/13 10:49:47;;;;;;;3.33;1.60;;;24.40;79.80;;;;;;5054431;28;20551;-81
2022/09/13 10:52:40;;;;;;;3.15;1.27;;;24.50;79.40;;;;;;5039375;28;20040;-81
2022/09/13 10:55:18;;;;;;;3.77;1.60;;;24.60;79.00;;;;;;5054381;28;20060;-81
2022/09/13 10:57:46;;;;;;;3.17;1.00;;;24.80;78.80;;;;;;5054308;28;20025;-81
2022/09/13 11:00:16;;;;;;;4.07;1.00;;;25.00;78.60;;;;;;5054078;28;20070;-80
2022/09/13 11:03:20;;;;;;;1.98;0.80;;;25.20;78.00;;;;;;5054392;28;20091;-80
2022/09/13 11:06:17;;;;;;;1.88;0.70;;;25.40;77.00;;;;;;5055282;28;20103;-82
2022/09/13 11:09:13;;;;;;;2.25;0.90;;;25.70;76.50;;;;;;5055388;28;20051;-81
2022/09/13 11:11:42;;;;;;;3.35;0.70;;;26.00;75.90;;;;;;5055408;28;20112;-81
2022/09/13 11:14:22;;;;;;;2.95;0.80;;;26.20;75.60;;;;;;5054345;28;20017;-81
2022/09/13 11:17:30;;;;;;;1.63;0.40;;;26.50;74.60;;;;;;5054162;28;20029;-82
2022/09/13 11:20:31;;;;;;;2.13;0.60;;;26.70;73.50;;;;;;5054258;28;20473;-82
2022/09/13 11:23:06;;;;;;;1.80;0.47;;;26.90;72.60;;;;;;5053740;28;20044;-82
2022/09/13 11:26:05;;;;;;;3.30;0.43;;;26.90;72.00;;;;;;5054064;28;20032;-83
2022/09/13 11:28:49;;;;;;;2.00;0.60;;;27.00;71.10;;;;;;5053839;28;20504;-81
2022/09/13 11:31:31;;;;;;;2.80;0.80;;;27.00;70.60;;;;;;5053635;28;20459;-81
2022/09/13 11:34:21;;;;;;;1.65;0.60;;;27.00;70.30;;;;;;5053634;28;20029;-82
2022/09/13 11:36:47;;;;;;;1.65;0.40;;;26.90;70.00;;;;;;5053548;28;20426;-81
2022/09/13 11:39:29;;;;;;;1.20;0.38;;;26.90;69.80;;;;;;5053764;28;20111;-82
2022/09/13 11:42:28;;;;;;;2.20;0.40;;;26.90;69.50;;;;;;5053519;28;20036;-81
2022/09/13 11:45:12;;;;;;;1.90;0.30;;;27.00;69.00;;;;;;5053278;28;20025;-80
2022/09/13 11:48:01;;;;;;;1.92;0.30;;;27.20;68.70;;;;;;5053338;28;20021;-82
2022/09/13 11:50:51;;;;;;;1.85;0.30;;;27.40;68.30;;;;;;5053704;28;20036;-81
2022/09/13 11:53:23;;;;;;;1.40;0.30;;;27.50;67.30;;;;;;5053271;28;20102;-79
2022/09/13 11:55:53;;;;;;;2.47;0.35;;;27.60;67.30;;;;;;5054437;28;20099;-80
2022/09/13 11:58:57;;;;;;;1.27;0.10;;;27.70;66.50;;;;;;5053132;28;20075;-79
2022/09/13 12:01:32;;;;;;;2.00;0.28;;;27.70;65.90;;;;;;5053047;28;20049;-80
2022/09/13 12:04:07;;;;;;;2.75;0.30;;;27.70;65.70;;;;;;5054941;28;20032;-81
2022/09/13 12:06:35;;;;;;;1.20;0.30;;;27.80;65.40;;;;;;5053278;28;20393;-79
2022/09/13 12:09:24;;;;;;;1.50;0.20;;;28.00;65.00;;;;;;5054577;28;20104;-82
2022/09/13 12:12:13;;;;;;;1.13;0.20;;;28.30;64.30;;;;;;5054483;28;20503;-81
2022/09/13 12:14:53;;;;;;;1.08;0.20;;;28.50;63.80;;;;;;5052469;28;20037;-82
2022/09/13 12:17:33;;;;;;;1.40;0.30;;;28.80;63.40;;;;;;5054057;28;20029;-80
2022/09/13 12:20:00;;;;;;;0.60;0.20;;;29.00;62.80;;;;;;5053027;28;20027;-81
2022/09/13 12:22:31;;;;;;;2.70;0.30;;;29.10;62.50;;;;;;5052977;28;20035;-79
2022/09/13 12:25:02;;;;;;;2.25;0.35;;;29.10;61.90;;;;;;5053996;28;20075;-79
2022/09/13 12:28:00;;;;;;;1.92;0.28;;;29.00;61.50;;;;;;5054021;28;20028;-78
2022/09/13 12:30:38;;;;;;;1.55;0.30;;;28.90;61.10;;;;;;5042919;28;20029;-81
2022/09/13 12:33:05;;;;;;;1.58;0.25;;;28.80;61.00;;;;;;5052599;28;20023;-80
2022/09/13 12:36:06;;;;;;;1.20;0.20;;;28.70;61.00;;;;;;5052508;28;20497;-80
2022/09/13 12:38:56;;;;;;;0.95;0.13;;;28.50;60.60;;;;;;5052447;28;20128;-78
2022/09/13 12:41:49;;;;;;;0.90;0.20;;;28.50;60.80;;;;;;5052229;28;20047;-80
2022/09/13 12:44:39;;;;;;;2.03;0.40;;;28.50;60.60;;;;;;5052120;28;20017;-80
2022/09/13 12:47:14;;;;;;;1.00;0.20;;;28.70;60.60;;;;;;5052036;28;20032;-81
2022/09/13 12:49:51;;;;;;;1.67;0.20;;;28.80;60.50;;;;;;5052192;28;20021;-80
2022/09/13 12:52:29;;;;;;;1.35;0.25;;;28.90;59.90;;;;;;5052034;28;20149;-76
2022/09/13 12:55:27;;;;;;;1.58;0.20;;;29.00;59.50;;;;;;5053310;28;20100;-83
2022/09/13 12:58:11;;;;;;;1.67;0.40;;;29.10;59.00;;;;;;5051921;28;20043;-82
2022/09/13 13:01:10;;;;;;;1.35;0.25;;;29.20;59.10;;;;;;5051596;28;20055;-82
2022/09/13 13:03:53;;;;;;;2.33;0.30;;;29.40;58.50;;;;;;5052040;28;20045;-81
2022/09/13 13:06:34;;;;;;;1.15;0.28;;;29.30;58.40;;;;;;5051696;28;20059;-81
2022/09/13 13:09:05;;;;;;;2.47;0.32;;;29.30;58.20;;;;;;5051846;28;20024;-81
2022/09/13 13:11:44;;;;;;;1.27;0.20;;;29.20;58.10;;;;;;5051914;28;20017;-81
2022/09/13 13:14:38;;;;;;;1.75;0.20;;;29.20;58.60;;;;;;5052034;28;20109;-82